Weather at Ouani Airport

Public forecast

Using degrees Celsius for public forecast. Weather courtesy of forecast.io.

Current aviation weather report (METAR) for Ouani Airport

Report is more than 6 hours old.

Retrieved 2020/06/19 09:00 UTC (4 months ago):

FMCV 190900Z 36006KT 9999 SCT020 31/18 Q1015

Closest aviation forecast (TAF) to Ouani Airport

Forecast is more than 12 hours old.

Closest forecast is Mohéli Bandar Es Eslam Airport, 40.2 nm (74.5 km) WSW. Retrieved 2014/01/03 18:00 UTC (7 years ago):

TAF FMCI 031500Z 0318/0424 VRB03KT 9999 FEW020TCU SCT030 TEMPO 0318/0322 SHRA BECMG 0406/0408 33010KT FEW020 PROB30 TEMPO 0409/0415 TSRA FEW018CB BKN030 BECMG 0418/0420 08003KT